Terminal Aerodrome Forecast
Issued by NWS Missoula, MT

Home | Current Version | Previous Version | Text Only | Print | Product List | Glossary On
Versions: 1 2 3 4 5 6 7 8 9 10 11 12 13 14 15
000
FTUS45 KMSO 250500
TAFMSO
TAF
KMSO 250536Z 2506/2606 12007KT P6SM VCSH FEW045 SCT100
     FM251900 34008KT P6SM VCSH SCT045 BKN060 OVC080
     FM252300 34012KT P6SM -SHRA SCT030 OVC040
     FM260300 33010KT 5SM -SHRA SCT030 OVC040=

USA.gov is the U.S. government's official web portal to all federal, state and local government web resources and services.